createdAt,value
2023-02-02T00:01:16.073Z,2.50
2023-02-02T00:03:42.829Z,2.30
2023-02-02T00:06:09.778Z,2.30
2023-02-02T00:08:38.172Z,2.20
2023-02-02T00:11:06.042Z,2.80
2023-02-02T00:13:33.379Z,2.10
2023-02-02T00:16:27.051Z,2.00
2023-02-02T00:18:56.314Z,1.80
2023-02-02T00:21:23.465Z,1.70
2023-02-02T00:23:50.542Z,1.70
2023-02-02T00:26:18.463Z,1.70
2023-02-02T00:28:45.429Z,1.80
2023-02-02T00:31:12.542Z,1.80
2023-02-02T00:33:39.582Z,1.70
2023-02-02T00:36:06.735Z,1.80
2023-02-02T00:38:34.616Z,1.70
2023-02-02T00:41:01.352Z,1.70
2023-02-02T00:43:28.097Z,1.70
2023-02-02T00:45:54.951Z,1.60
2023-02-02T00:48:21.960Z,1.80
2023-02-02T00:50:48.685Z,1.70
2023-02-02T00:53:15.421Z,1.50
2023-02-02T00:55:42.142Z,1.70
2023-02-02T00:58:08.822Z,1.60
2023-02-02T01:00:35.867Z,1.70
2023-02-02T01:03:04.432Z,1.60
2023-02-02T01:05:32.314Z,1.60
2023-02-02T01:07:59.103Z,1.50
2023-02-02T01:10:25.922Z,1.50
2023-02-02T01:12:52.869Z,1.50
2023-02-02T01:15:19.640Z,1.40
2023-02-02T01:17:46.397Z,1.60
2023-02-02T01:20:18.910Z,1.60
2023-02-02T01:22:46.716Z,1.50
2023-02-02T01:25:13.625Z,1.50
2023-02-02T01:27:40.361Z,1.20
2023-02-02T01:30:07.937Z,1.30
2023-02-02T01:32:34.615Z,1.30
2023-02-02T01:35:01.282Z,1.30
2023-02-02T01:37:27.974Z,1.30
2023-02-02T01:39:54.717Z,1.20
2023-02-02T01:42:23.152Z,1.10
2023-02-02T01:44:53.080Z,1.10
2023-02-02T01:47:22.281Z,1.40
2023-02-02T01:49:49.206Z,1.30
2023-02-02T01:52:19.064Z,1.30
2023-02-02T01:54:50.843Z,1.30
2023-02-02T01:57:26.062Z,1.20
2023-02-02T01:59:54.918Z,1.20
2023-02-02T02:02:21.893Z,1.20
2023-02-02T02:04:50.643Z,1.30
2023-02-02T02:07:17.383Z,1.30
2023-02-02T02:09:44.092Z,1.30
2023-02-02T02:12:14.452Z,1.20
2023-02-02T02:15:07.884Z,1.80
2023-02-02T02:18:01.263Z,1.20
2023-02-02T02:21:16.973Z,1.10
2023-02-02T02:24:11.140Z,1.00
2023-02-02T02:26:59.371Z,1.10
2023-02-02T02:29:44.702Z,1.10
2023-02-02T02:32:27.570Z,1.10
2023-02-02T02:35:09.480Z,1.10
2023-02-02T02:37:38.812Z,1.10
2023-02-02T02:40:18.620Z,1.00
2023-02-02T02:42:56.039Z,1.20
2023-02-02T02:45:25.285Z,1.10
2023-02-02T02:47:53.112Z,1.00
2023-02-02T02:50:20.283Z,1.10
2023-02-02T02:52:49.335Z,2.20
2023-02-02T02:55:16.308Z,1.40
2023-02-02T02:58:07.515Z,1.10
2023-02-02T03:00:57.493Z,1.30
2023-02-02T03:03:53.657Z,1.40
2023-02-02T03:06:34.435Z,1.30
2023-02-02T03:09:07.385Z,1.40
2023-02-02T03:11:35.064Z,1.30
2023-02-02T03:14:02.478Z,2.00
2023-02-02T03:16:29.203Z,1.40
2023-02-02T03:18:56.847Z,1.60
2023-02-02T03:21:23.587Z,1.70
2023-02-02T03:23:50.275Z,1.40
2023-02-02T03:26:17.067Z,1.20
2023-02-02T03:28:46.057Z,1.50
2023-02-02T03:31:13.642Z,1.30
2023-02-02T03:33:40.510Z,1.50
2023-02-02T03:36:07.524Z,1.50
2023-02-02T03:38:34.263Z,1.60
2023-02-02T03:41:01.001Z,1.60
2023-02-02T03:43:27.739Z,1.60
2023-02-02T03:45:59.470Z,1.40
2023-02-02T03:48:26.801Z,1.60
2023-02-02T03:50:54.245Z,1.60
2023-02-02T03:53:21.685Z,1.60
2023-02-02T03:55:48.634Z,1.60
2023-02-02T03:58:15.371Z,1.50
2023-02-02T04:00:42.101Z,2.30
2023-02-02T04:03:09.120Z,1.60
2023-02-02T04:05:35.945Z,1.30
2023-02-02T04:08:02.697Z,1.50
2023-02-02T04:10:29.435Z,2.20
2023-02-02T04:12:56.245Z,2.00
2023-02-02T04:15:23.424Z,1.60
2023-02-02T04:17:50.264Z,1.50
2023-02-02T04:20:17.303Z,1.50
2023-02-02T04:22:43.988Z,1.70
2023-02-02T04:25:19.663Z,1.60
2023-02-02T04:27:46.400Z,2.60
2023-02-02T04:30:13.319Z,2.40
2023-02-02T04:32:40.073Z,1.60
2023-02-02T04:35:07.295Z,1.60
2023-02-02T04:37:34.269Z,1.70
2023-02-02T04:40:01.065Z,1.60
2023-02-02T04:42:27.793Z,2.70
2023-02-02T04:44:54.466Z,1.90
2023-02-02T04:47:21.220Z,1.90
2023-02-02T04:49:47.964Z,2.20
2023-02-02T04:52:14.676Z,1.40
2023-02-02T04:54:41.446Z,1.50
2023-02-02T04:57:08.175Z,1.80
2023-02-02T04:59:34.913Z,1.70
2023-02-02T05:02:02.396Z,1.40
2023-02-02T05:04:29.106Z,2.10
2023-02-02T05:06:55.854Z,1.50
2023-02-02T05:09:22.580Z,1.90
2023-02-02T05:11:49.291Z,1.40
2023-02-02T05:14:18.424Z,2.10
2023-02-02T05:16:45.587Z,1.80
2023-02-02T05:19:13.000Z,1.40
2023-02-02T05:21:39.731Z,1.90
2023-02-02T05:24:06.688Z,1.50
2023-02-02T05:26:33.472Z,1.70
2023-02-02T05:29:00.199Z,1.70
2023-02-02T05:31:27.170Z,1.70
2023-02-02T05:33:53.956Z,1.70
2023-02-02T05:36:20.721Z,1.60
2023-02-02T05:38:47.455Z,2.40
2023-02-02T05:41:14.223Z,1.70
2023-02-02T05:43:41.014Z,2.00
2023-02-02T05:46:07.819Z,1.70
2023-02-02T05:48:34.535Z,2.10
2023-02-02T05:51:15.866Z,2.40
2023-02-02T05:53:44.983Z,1.80
2023-02-02T05:56:13.290Z,1.70
2023-02-02T05:58:40.050Z,2.00
2023-02-02T06:01:07.300Z,2.00
2023-02-02T06:03:34.137Z,1.70
2023-02-02T06:06:01.059Z,1.60
2023-02-02T06:08:27.832Z,2.30
2023-02-02T06:10:54.532Z,1.90
2023-02-02T06:13:22.242Z,1.80
2023-02-02T06:15:49.030Z,1.70
2023-02-02T06:18:16.013Z,1.60
2023-02-02T06:20:42.769Z,2.30
2023-02-02T06:23:09.557Z,1.70
2023-02-02T06:25:36.305Z,1.80
2023-02-02T06:28:03.291Z,1.80
2023-02-02T06:30:30.018Z,2.90
2023-02-02T06:32:59.372Z,1.80
2023-02-02T06:35:26.427Z,1.30
2023-02-02T06:37:53.776Z,2.00
2023-02-02T06:40:20.747Z,1.60
2023-02-02T06:42:47.520Z,1.60
2023-02-02T06:45:14.286Z,2.00
2023-02-02T06:47:41.629Z,1.80
2023-02-02T06:50:09.865Z,2.00
2023-02-02T06:52:36.605Z,2.00
2023-02-02T06:55:03.571Z,2.10
2023-02-02T06:57:30.396Z,2.00
2023-02-02T06:59:57.209Z,2.50
2023-02-02T07:02:23.978Z,2.20
2023-02-02T07:04:51.457Z,2.00
2023-02-02T07:07:18.191Z,2.00
2023-02-02T07:09:44.927Z,1.90
2023-02-02T07:12:11.744Z,2.50
2023-02-02T07:14:38.447Z,2.20
2023-02-02T07:17:05.334Z,2.30
2023-02-02T07:19:32.170Z,2.20
2023-02-02T07:21:58.987Z,2.00
2023-02-02T07:24:27.540Z,2.70
2023-02-02T07:26:54.390Z,2.30
2023-02-02T07:29:21.148Z,2.80
2023-02-02T07:31:47.943Z,2.00
2023-02-02T07:34:14.773Z,1.80
2023-02-02T07:36:41.533Z,2.10
2023-02-02T07:39:08.313Z,2.50
2023-02-02T07:41:36.666Z,1.60
2023-02-02T07:44:04.732Z,1.80
2023-02-02T07:46:31.841Z,3.80
2023-02-02T07:48:58.779Z,1.90
2023-02-02T07:51:25.868Z,1.80
2023-02-02T07:53:54.782Z,2.50
2023-02-02T07:56:24.368Z,1.90
2023-02-02T07:58:53.254Z,2.60
2023-02-02T08:01:23.033Z,0.90
2023-02-02T08:03:50.812Z,1.60
2023-02-02T08:06:29.807Z,2.60
2023-02-02T08:08:56.730Z,2.20
2023-02-02T08:11:24.805Z,1.60
2023-02-02T08:13:54.689Z,1.40
2023-02-02T08:16:24.468Z,2.40
2023-02-02T08:18:51.665Z,2.10
2023-02-02T08:21:19.583Z,2.10
2023-02-02T08:23:47.139Z,1.50
2023-02-02T08:26:13.805Z,2.70
2023-02-02T08:28:42.644Z,1.80
2023-02-02T08:31:18.967Z,1.80
2023-02-02T08:33:45.836Z,2.30
2023-02-02T08:36:17.084Z,2.40
2023-02-02T08:38:44.499Z,2.30
2023-02-02T08:41:13.744Z,3.40
2023-02-02T08:43:41.208Z,2.70
2023-02-02T08:46:10.109Z,2.10
2023-02-02T08:48:36.957Z,2.30
2023-02-02T08:51:05.198Z,1.50
2023-02-02T08:53:32.609Z,2.20
2023-02-02T08:56:04.555Z,2.20
2023-02-02T08:58:32.084Z,2.30
2023-02-02T09:01:15.527Z,1.40
2023-02-02T09:03:42.876Z,2.20
2023-02-02T09:06:15.534Z,2.70
2023-02-02T09:08:42.940Z,2.20
2023-02-02T09:11:17.174Z,1.70
2023-02-02T09:13:46.072Z,2.40
2023-02-02T09:16:15.021Z,2.80
2023-02-02T09:18:42.513Z,2.20
2023-02-02T09:21:12.167Z,1.70
2023-02-02T09:23:40.665Z,1.60
2023-02-02T09:26:14.920Z,1.60
2023-02-02T09:28:44.230Z,2.30
2023-02-02T09:31:11.645Z,2.40
2023-02-02T09:33:39.002Z,2.50
2023-02-02T09:36:22.831Z,2.10
2023-02-02T09:38:52.907Z,2.30
2023-02-02T09:41:37.862Z,2.30
2023-02-02T09:44:27.925Z,2.30
2023-02-02T09:47:16.257Z,2.40
2023-02-02T09:49:56.455Z,2.40
2023-02-02T09:52:33.506Z,2.40
2023-02-02T09:55:12.856Z,2.40
2023-02-02T09:57:45.556Z,2.50
2023-02-02T10:00:27.917Z,2.30
2023-02-02T10:03:00.718Z,2.60
2023-02-02T10:05:43.754Z,2.60
2023-02-02T10:08:33.608Z,2.70
2023-02-02T10:11:05.406Z,2.30
2023-02-02T10:13:37.990Z,1.70
2023-02-02T10:16:13.479Z,2.30
2023-02-02T10:21:12.699Z,2.80
2023-02-02T10:23:42.222Z,2.70
2023-02-02T10:26:09.039Z,2.80
2023-02-02T10:28:43.195Z,2.50
2023-02-02T10:31:20.143Z,2.60
2023-02-02T10:34:11.429Z,3.00
2023-02-02T10:36:56.083Z,3.50
2023-02-02T10:39:33.404Z,2.80
2023-02-02T10:42:14.066Z,2.80
2023-02-02T10:44:58.720Z,2.60
2023-02-02T10:47:32.066Z,2.30
2023-02-02T10:50:14.317Z,2.60
2023-02-02T10:52:46.237Z,2.10
2023-02-02T10:55:41.691Z,2.50
2023-02-02T10:58:11.404Z,2.80
2023-02-02T11:00:43.635Z,2.90
2023-02-02T11:03:12.010Z,2.90
2023-02-02T11:05:57.366Z,2.20
2023-02-02T11:10:58.075Z,3.00
2023-02-02T11:13:33.603Z,2.80
2023-02-02T11:16:20.317Z,3.10
2023-02-02T11:18:47.428Z,3.20
2023-02-02T11:21:29.675Z,3.20
2023-02-02T11:24:02.868Z,3.20
2023-02-02T11:26:47.076Z,3.90
2023-02-02T11:29:17.645Z,4.40
2023-02-02T11:31:45.210Z,4.60
2023-02-02T11:34:27.484Z,4.30
2023-02-02T11:37:01.711Z,5.00
2023-02-02T11:39:28.703Z,5.00
2023-02-02T11:42:01.105Z,4.90
2023-02-02T11:44:30.198Z,5.10
2023-02-02T11:46:57.559Z,4.90
2023-02-02T11:49:24.731Z,4.90
2023-02-02T11:52:04.555Z,5.00
2023-02-02T11:54:33.383Z,5.20
2023-02-02T11:57:02.898Z,5.00
2023-02-02T11:59:36.855Z,4.70
2023-02-02T12:02:31.228Z,5.30
2023-02-02T12:05:33.077Z,5.40
2023-02-02T12:08:00.131Z,5.20
2023-02-02T12:10:47.368Z,5.20
2023-02-02T12:13:37.640Z,5.40
2023-02-02T12:16:43.680Z,5.40
2023-02-02T12:19:10.451Z,5.40
2023-02-02T12:21:47.785Z,5.60
2023-02-02T12:24:36.570Z,5.40
2023-02-02T12:27:26.664Z,5.20
2023-02-02T12:30:24.922Z,5.50
2023-02-02T12:33:16.551Z,5.40
2023-02-02T12:36:18.850Z,5.30
2023-02-02T12:38:49.819Z,5.40
2023-02-02T12:41:29.481Z,5.30
2023-02-02T12:44:20.156Z,5.40
2023-02-02T12:47:27.140Z,5.30
2023-02-02T12:50:23.470Z,5.30
2023-02-02T12:53:27.413Z,5.30
2023-02-02T12:56:34.891Z,5.30
2023-02-02T12:59:17.073Z,5.30
2023-02-02T13:05:15.701Z,5.10
2023-02-02T13:08:08.247Z,5.20
2023-02-02T13:11:45.284Z,5.00
2023-02-02T13:15:07.011Z,4.10
2023-02-02T13:17:57.594Z,5.40
2023-02-02T13:20:59.050Z,4.50
2023-02-02T13:23:36.517Z,4.40
2023-02-02T13:26:09.055Z,4.00
2023-02-02T13:29:00.293Z,3.90
2023-02-02T13:31:48.359Z,4.10
2023-02-02T13:34:22.945Z,4.10
2023-02-02T13:36:56.890Z,3.90
2023-02-02T13:39:35.060Z,3.60
2023-02-02T13:42:02.966Z,3.80
2023-02-02T13:44:38.812Z,3.90
2023-02-02T13:47:19.493Z,3.70
2023-02-02T13:49:53.090Z,3.60
2023-02-02T13:52:45.630Z,3.90
2023-02-02T13:55:46.501Z,3.60
2023-02-02T13:58:31.450Z,3.60
2023-02-02T14:01:05.026Z,3.50
2023-02-02T14:03:38.676Z,3.50
2023-02-02T14:06:13.265Z,3.40
2023-02-02T14:08:46.802Z,3.40
2023-02-02T14:11:35.474Z,3.40
2023-02-02T14:14:32.865Z,3.10
2023-02-02T14:17:07.529Z,3.30
2023-02-02T14:19:42.237Z,3.50
2023-02-02T14:22:08.990Z,3.30
2023-02-02T14:24:35.641Z,3.00
2023-02-02T14:27:05.546Z,3.10
2023-02-02T14:29:32.324Z,3.30
2023-02-02T14:32:00.029Z,3.30
2023-02-02T14:34:34.285Z,3.10
2023-02-02T14:37:28.459Z,3.30
2023-02-02T14:40:08.819Z,3.30
2023-02-02T14:43:34.509Z,3.30
2023-02-02T14:46:13.414Z,3.30
2023-02-02T14:49:04.924Z,3.40
2023-02-02T14:51:34.804Z,3.30
2023-02-02T14:54:20.148Z,3.50
2023-02-02T14:56:50.006Z,3.20
2023-02-02T14:59:32.474Z,3.30
2023-02-02T15:02:14.130Z,3.30
2023-02-02T15:04:41.517Z,3.30
2023-02-02T15:07:31.311Z,3.50
2023-02-02T15:09:58.156Z,3.30
2023-02-02T15:12:34.137Z,3.20
2023-02-02T15:15:12.291Z,3.20
2023-02-02T15:17:38.934Z,3.20
2023-02-02T15:20:24.697Z,3.20
2023-02-02T15:23:04.305Z,2.60
2023-02-02T15:25:34.125Z,3.20
2023-02-02T15:28:22.566Z,3.10
2023-02-02T15:30:56.682Z,3.20
2023-02-02T15:33:36.728Z,3.20
2023-02-02T15:36:10.086Z,3.20
2023-02-02T15:38:39.753Z,2.90
2023-02-02T15:41:21.274Z,3.20
2023-02-02T15:43:48.095Z,3.10
2023-02-02T15:46:24.336Z,3.00
2023-02-02T15:49:33.289Z,3.10
2023-02-02T15:52:10.113Z,3.10
2023-02-02T15:54:39.784Z,2.80
2023-02-02T15:57:30.068Z,3.10
2023-02-02T15:59:57.779Z,3.10
2023-02-02T16:02:34.100Z,3.10
2023-02-02T16:05:00.862Z,3.00
2023-02-02T16:07:32.075Z,3.00
2023-02-02T16:10:08.044Z,3.00
2023-02-02T16:12:35.570Z,3.00
2023-02-02T16:15:02.438Z,2.90
2023-02-02T16:17:32.806Z,2.80
2023-02-02T16:19:59.523Z,2.60
2023-02-02T16:22:26.925Z,2.70
2023-02-02T16:24:56.762Z,3.50
2023-02-02T16:27:26.428Z,2.90
2023-02-02T16:29:55.815Z,2.70
2023-02-02T16:32:34.545Z,2.80
2023-02-02T16:35:04.652Z,2.70
2023-02-02T16:37:36.348Z,2.60
2023-02-02T16:40:26.202Z,2.60
2023-02-02T16:43:14.662Z,2.80
2023-02-02T16:45:50.796Z,2.90
2023-02-02T16:48:41.046Z,2.90
2023-02-02T16:51:29.597Z,2.80
2023-02-02T17:04:48.028Z,3.10
2023-02-02T17:07:19.259Z,2.90
2023-02-02T17:09:48.703Z,3.00
2023-02-02T17:12:32.577Z,3.00
2023-02-02T17:15:30.475Z,3.00
2023-02-02T17:27:37.360Z,3.30
2023-02-02T17:30:06.526Z,3.30
2023-02-02T17:47:25.557Z,2.80
2023-02-02T18:12:58.930Z,2.90
2023-02-02T18:15:30.787Z,2.80
2023-02-02T18:18:05.712Z,2.90
2023-02-02T18:20:47.599Z,2.90
2023-02-02T18:26:47.381Z,2.80
2023-02-02T18:29:14.553Z,2.90
2023-02-02T18:31:50.591Z,2.90
2023-02-02T18:37:41.383Z,2.80
2023-02-02T18:44:20.387Z,2.90
2023-02-02T18:46:55.947Z,2.90
2023-02-02T18:49:28.206Z,2.80
2023-02-02T18:55:05.783Z,4.20
2023-02-02T19:12:04.999Z,2.90
2023-02-02T19:19:25.077Z,2.90
2023-02-02T19:22:24.402Z,2.80
2023-02-02T19:29:13.173Z,2.80
2023-02-02T19:31:41.572Z,2.90
2023-02-02T19:47:57.359Z,2.80
2023-02-02T19:51:21.805Z,2.80
2023-02-02T19:54:21.957Z,2.90
2023-02-02T20:04:01.601Z,2.90
2023-02-02T20:06:52.636Z,2.90
2023-02-02T20:12:54.699Z,2.90
2023-02-02T20:32:40.971Z,2.90
2023-02-02T20:35:53.767Z,2.80
2023-02-02T20:39:24.109Z,2.90
2023-02-02T20:41:56.665Z,2.90
2023-02-02T20:44:43.351Z,2.80
2023-02-02T20:58:58.452Z,3.00
2023-02-02T21:23:36.980Z,3.10
2023-02-02T21:34:30.197Z,3.10
2023-02-02T21:41:22.671Z,3.40
